Time;durP1;ratioP1;P1;durP2;ratioP2;P2;SDS_P1;SDS_P2;PMS_P1;PMS_P2;Temp;Humidity;BMP_temperature;BMP_pressure;BME280_temperature;BME280_humidity;BME280_pressure;Samples;Min_cycle;Max_cycle;Signal;HPM_P1;HPM_P2
2021/12/28 07:35:09;;;;;;;27.35;10.88;;;;;;;4.43;87.01;96564.03;4915158;29;20059;-50
2021/12/28 07:37:34;;;;;;;20.17;10.25;;;;;;;4.45;86.48;96562.16;4926226;29;20440;-49
2021/12/28 07:39:59;;;;;;;25.50;10.88;;;;;;;4.56;86.16;96569.19;4918653;29;20087;-48
2021/12/28 07:42:25;;;;;;;23.77;11.23;;;;;;;4.62;85.80;96569.59;4910751;29;20046;-49
2021/12/28 07:44:50;;;;;;;23.80;11.35;;;;;;;4.51;85.50;96572.94;4900359;29;20017;-52
2021/12/28 07:47:16;;;;;;;23.90;12.30;;;;;;;4.38;86.07;96572.13;4897199;29;20029;-50
2021/12/28 07:49:41;;;;;;;22.85;10.48;;;;;;;4.45;86.25;96578.56;4899664;29;20497;-49
2021/12/28 07:52:07;;;;;;;22.13;11.07;;;;;;;4.48;85.94;96583.53;4901973;29;20020;-48
2021/12/28 07:54:32;;;;;;;21.38;10.70;;;;;;;4.56;85.36;96569.19;4901107;29;20028;-50
2021/12/28 07:56:57;;;;;;;21.58;11.10;;;;;;;4.51;85.80;96572.94;4898848;29;20044;-50
2021/12/28 07:59:23;;;;;;;22.33;10.02;;;;;;;4.57;85.58;96574.25;4902629;29;20101;-52
2021/12/28 08:01:48;;;;;;;19.48;10.32;;;;;;;4.46;86.44;96585.41;4901779;29;20404;-50
2021/12/28 08:04:14;;;;;;;21.00;10.00;;;;;;;4.57;85.43;96581.22;4900775;29;20036;-47
2021/12/28 08:06:39;;;;;;;22.42;10.05;;;;;;;4.57;85.20;96587.25;4892755;29;20032;-48
2021/12/28 08:09:04;;;;;;;19.42;9.43;;;;;;;4.49;85.61;96587.78;4898332;29;20032;-51
2021/12/28 08:11:30;;;;;;;21.45;9.23;;;;;;;4.53;85.58;96589.22;4893689;29;20040;-50
2021/12/28 08:13:55;;;;;;;18.38;9.90;;;;;;;4.50;85.49;96588.63;4899563;29;20042;-46
2021/12/28 08:16:21;;;;;;;19.63;9.68;;;;;;;4.59;85.21;96589.75;4897948;29;20032;-47
2021/12/28 08:18:46;;;;;;;18.42;9.93;;;;;;;4.48;85.54;96593.94;4904417;29;20020;-49
2021/12/28 08:21:11;;;;;;;20.60;9.80;;;;;;;4.56;84.90;96589.97;4899525;29;20043;-50
2021/12/28 08:23:37;;;;;;;20.40;9.50;;;;;;;4.39;85.25;96588.53;4901301;29;20025;-50
2021/12/28 08:26:03;;;;;;;17.60;9.70;;;;;;;4.32;85.87;96582.94;4900292;29;20024;-49
2021/12/28 08:28:29;;;;;;;20.75;8.98;;;;;;;4.39;85.78;96578.97;4899033;29;20039;-50
2021/12/28 08:30:56;;;;;;;17.67;9.18;;;;;;;4.45;85.58;96583.75;4900322;29;20036;-50
2021/12/28 08:33:21;;;;;;;17.80;8.23;;;;;;;4.48;85.25;96580.94;4892744;29;20036;-47
2021/12/28 08:35:47;;;;;;;17.20;8.93;;;;;;;4.51;85.17;96582.50;4900380;29;20094;-49
2021/12/28 08:38:12;;;;;;;18.52;8.85;;;;;;;4.42;85.90;96578.78;4896987;29;20028;-49
2021/12/28 08:40:39;;;;;;;17.95;8.98;;;;;;;4.38;86.11;96571.31;4895671;29;20037;-49
2021/12/28 08:43:04;;;;;;;18.58;9.00;;;;;;;4.36;86.05;96565.38;4895938;29;20036;-48
2021/12/28 08:45:30;;;;;;;18.40;9.23;;;;;;;4.33;86.37;96556.03;4895755;29;20039;-53
2021/12/28 08:47:55;;;;;;;18.98;9.07;;;;;;;4.22;86.55;96549.00;4898182;29;20037;-52
2021/12/28 08:50:21;;;;;;;20.77;10.35;;;;;;;4.44;85.78;96550.94;4889247;29;20028;-49
2021/12/28 08:52:46;;;;;;;18.17;8.73;;;;;;;4.40;85.84;96552.06;4895831;29;20033;-50
2021/12/28 08:55:12;;;;;;;17.02;8.25;;;;;;;4.53;85.44;96550.28;4895727;29;20028;-50
2021/12/28 08:57:37;;;;;;;15.68;8.00;;;;;;;4.58;85.53;96542.19;4895877;29;20048;-49
2021/12/28 09:00:08;;;;;;;15.88;8.00;;;;;;;4.57;85.46;96539.69;4896885;29;20025;-48
2021/12/28 09:02:34;;;;;;;15.98;8.05;;;;;;;4.21;86.74;96533.56;4899669;29;20037;-51
2021/12/28 09:04:59;;;;;;;16.58;8.00;;;;;;;4.40;86.36;96539.09;4882671;29;20505;-48
2021/12/28 09:07:24;;;;;;;14.52;7.68;;;;;;;4.61;85.64;96531.59;4891455;29;20032;-49
2021/12/28 09:09:50;;;;;;;14.20;7.45;;;;;;;4.54;86.26;96522.53;4899512;29;20029;-46
2021/12/28 09:12:15;;;;;;;16.73;7.55;;;;;;;4.69;85.34;96525.84;4883559;29;20055;-48
2021/12/28 09:14:41;;;;;;;13.75;7.32;;;;;;;4.86;84.86;96522.84;4881699;29;20025;-51
2021/12/28 09:17:06;;;;;;;14.57;6.85;;;;;;;4.90;84.21;96513.91;4890446;29;20032;-48
2021/12/28 09:19:31;;;;;;;13.90;6.75;;;;;;;4.93;84.90;96518.88;4900149;29;20027;-48
2021/12/28 09:21:58;;;;;;;13.75;6.32;;;;;;;5.02;84.61;96519.13;4900291;29;20035;-51
2021/12/28 09:24:23;;;;;;;12.48;6.13;;;;;;;4.97;84.70;96517.69;4881384;29;20084;-52
2021/12/28 09:26:48;;;;;;;11.55;5.82;;;;;;;5.08;84.43;96513.50;4901173;29;20028;-48
2021/12/28 09:29:14;;;;;;;13.13;6.10;;;;;;;5.15;84.10;96512.91;4900250;29;20391;-48
2021/12/28 09:31:39;;;;;;;12.05;5.57;;;;;;;5.21;84.15;96496.06;4900426;29;20025;-50
2021/12/28 09:34:05;;;;;;;14.13;6.43;;;;;;;5.33;84.12;96502.09;4899444;29;20040;-48
2021/12/28 09:36:30;;;;;;;14.13;6.80;;;;;;;5.34;84.54;96501.19;4899893;29;20105;-48
2021/12/28 09:38:56;;;;;;;11.75;5.88;;;;;;;5.38;84.52;96500.00;4899988;29;20029;-48
2021/12/28 09:41:21;;;;;;;18.50;7.65;;;;;;;5.60;84.47;96497.44;4900330;29;20037;-48
2021/12/28 09:43:46;;;;;;;11.75;5.25;;;;;;;5.59;84.21;96498.38;4898248;29;20714;-50
2021/12/28 09:46:12;;;;;;;10.70;5.25;;;;;;;5.58;84.31;96506.31;4899771;29;20028;-48
2021/12/28 09:48:37;;;;;;;8.57;4.22;;;;;;;5.55;84.83;96496.13;4898996;29;20021;-48
2021/12/28 09:51:03;;;;;;;7.32;3.92;;;;;;;5.61;84.77;96495.66;4900193;29;20037;-50
2021/12/28 09:53:28;;;;;;;8.43;3.88;;;;;;;5.68;84.65;96486.47;4899594;29;20557;-49
2021/12/28 09:55:53;;;;;;;9.38;4.13;;;;;;;5.74;84.32;96491.19;4900020;29;20039;-48
2021/12/28 09:58:19;;;;;;;9.68;4.07;;;;;;;5.67;85.02;96490.00;4898972;29;20116;-51
2021/12/28 10:00:44;;;;;;;11.10;4.50;;;;;;;5.83;84.63;96487.88;4899730;29;20115;-49
2021/12/28 10:03:10;;;;;;;8.95;4.30;;;;;;;5.80;84.26;96484.69;4899846;29;20024;-50
2021/12/28 10:05:35;;;;;;;10.68;4.35;;;;;;;5.94;84.66;96482.72;4900256;29;20092;-50
2021/12/28 10:08:02;;;;;;;10.90;4.18;;;;;;;6.17;83.97;96472.28;4899723;29;20031;-50
2021/12/28 10:10:49;;;;;;;8.57;3.70;;;;;;;6.25;83.55;96469.91;4899933;29;20031;-50
2021/12/28 10:13:21;;;;;;;10.10;3.90;;;;;;;6.24;84.20;96478.69;4899155;29;20033;-53
2021/12/28 15:19:51;;;;;;;;;;;;;;;7.97;89.31;96239.13;5668768;23;19962;-48
2021/12/28 15:22:17;;;;;;;;;;;;;;;7.90;88.75;96241.44;4929752;29;20330;-51
2021/12/28 15:24:43;;;;;;;;;;;;;;;7.92;88.96;96234.31;4929594;29;19915;-48
2021/12/28 15:27:08;;;;;;;;;;;;;;;8.02;88.76;96227.31;4919020;29;19918;-54
2021/12/28 15:29:33;;;;;;;;;;;;;;;7.90;88.74;96236.22;4929413;29;20375;-47
2021/12/28 15:31:59;;;;;;;;;;;;;;;7.99;88.76;96234.59;4913448;29;19915;-52
2021/12/28 15:34:24;;;;;;;;;;;;;;;7.87;88.69;96238.28;4910354;29;19945;-47
2021/12/28 15:36:50;;;;;;;;;;;;;;;7.91;89.11;96247.50;4915425;29;19915;-50
2021/12/28 15:39:15;;;;;;;;;;;;;;;8.04;88.05;96248.88;4915196;29;19926;-53
2021/12/28 15:41:41;;;;;;;;;;;;;;;7.97;88.61;96246.94;4917345;29;19958;-48
2021/12/28 15:44:06;;;;;;;;;;;;;;;7.92;88.60;96243.94;4916224;29;19946;-48
2021/12/28 15:46:34;;;;;;;;;;;;;;;7.89;88.73;96250.25;4916139;29;19965;-54
2021/12/28 15:49:00;;;;;;;;;;;;;;;7.86;89.26;96245.28;4914266;29;20302;-48
2021/12/28 15:51:25;;;;;;;;;;;;;;;7.87;88.84;96243.50;4907613;29;20450;-49
2021/12/28 15:53:53;;;;;;;;;;;;;;;8.07;88.40;96253.00;4913148;29;19997;-48
2021/12/28 15:56:18;;;;;;;;;;;;;;;7.99;88.57;96258.91;4915827;29;19919;-48
2021/12/28 15:58:44;;;;;;;;;;;;;;;7.82;89.05;96256.97;4916219;29;20398;-48
2021/12/28 16:01:09;;;;;;;;;;;;;;;7.93;89.41;96246.41;4916469;29;19915;-48
2021/12/28 16:03:35;;;;;;;;;;;;;;;7.89;89.63;96252.84;4916009;29;19923;-47
2021/12/28 16:06:01;;;;;;;;;;;;;;;7.77;89.90;96262.59;4915940;29;20072;-51
2021/12/28 16:08:26;;;;;;;;;;;;;;;7.78;90.56;96274.69;4915241;29;20370;-51
2021/12/28 16:10:51;;;;;;;;;;;;;;;7.89;90.12;96291.19;4915791;29;19930;-49
2021/12/28 16:13:16;;;;;;;;;;;;;;;7.79;90.43;96296.38;4917043;29;19997;-53
2021/12/28 16:15:41;;;;;;;;;;;;;;;7.83;89.92;96309.03;4917345;29;19965;-49
2021/12/28 16:18:07;;;;;;;;;;;;;;;7.77;90.59;96330.44;4917788;29;19915;-53
2021/12/28 16:20:32;;;;;;;;;;;;;;;7.71;91.41;96336.22;4915698;29;19929;-49
2021/12/28 16:22:57;;;;;;;;;;;;;;;7.80;91.81;96365.88;4916332;29;19915;-51
2021/12/28 16:25:22;;;;;;;;;;;;;;;7.77;91.27;96351.31;4916599;29;20438;-50
2021/12/28 16:27:48;;;;;;;;;;;;;;;7.85;90.09;96343.66;4915648;29;20383;-52
2021/12/28 16:30:23;;;;;;;;;;;;;;;7.97;88.39;96354.81;4916080;29;20005;-52
2021/12/28 16:32:48;;;;;;;;;;;;;;;8.02;88.47;96432.75;4916240;29;19915;-52
2021/12/28 16:35:14;;;;;;;;;;;;;;;7.61;84.59;96424.88;4915440;29;19968;-53
2021/12/28 16:37:39;;;;;;;;;;;;;;;7.27;83.03;96420.84;4913575;29;20328;-51
2021/12/28 16:40:04;;;;;;;;;;;;;;;6.89;84.45;96415.25;4916399;29;19923;-51
2021/12/28 16:42:29;;;;;;;;;;;;;;;6.79;84.13;96424.78;4915776;29;19918;-51
2021/12/28 16:44:55;;;;;;;;;;;;;;;6.76;83.99;96417.19;4904649;29;19919;-50
2021/12/28 16:47:20;;;;;;;;;;;;;;;6.53;86.76;96359.16;4914668;29;19974;-54
2021/12/28 16:49:45;;;;;;;;;;;;;;;6.69;84.67;96342.28;4911212;29;20006;-49
2021/12/28 16:52:11;;;;;;;;;;;;;;;6.59;85.75;96345.63;4914886;29;19975;-55
2021/12/28 16:54:36;;;;;;;;;;;;;;;6.62;85.82;96358.41;4910247;29;19998;-51
2021/12/28 16:57:03;;;;;;;;;;;;;;;6.44;85.82;96359.91;4913427;29;20367;-49
2021/12/28 16:59:28;;;;;;;;;;;;;;;6.34;87.86;96364.22;4910214;29;19919;-52
2021/12/28 17:01:53;;;;;;;;;;;;;;;6.32;87.08;96369.53;4915672;29;19918;-53
2021/12/28 17:04:19;;;;;;;;;;;;;;;6.32;87.58;96374.75;4915792;29;19915;-52
2021/12/28 17:06:44;;;;;;;;;;;;;;;6.37;86.31;96372.59;4915864;29;19919;-51
2021/12/28 17:09:09;;;;;;;;;;;;;;;6.23;86.80;96393.72;4915438;29;20363;-53
2021/12/28 17:11:34;;;;;;;;;;;;;;;6.23;86.97;96398.94;4915775;29;20370;-51
2021/12/28 17:14:00;;;;;;;;;;;;;;;6.21;86.96;96411.22;4914208;29;20091;-52
2021/12/28 17:16:26;;;;;;;;;;;;;;;6.11;87.05;96415.50;4914966;29;19950;-50
2021/12/28 17:18:51;;;;;;;;;;;;;;;6.21;87.37;96413.81;4916263;29;19912;-50
2021/12/28 17:21:16;;;;;;;;;;;;;;;6.13;87.62;96424.84;4903457;29;19922;-53
2021/12/28 17:23:43;;;;;;;;;;;;;;;6.26;86.32;96435.09;4918838;29;19911;-50
2021/12/28 17:26:08;;;;;;;;;;;;;;;6.23;86.64;96430.16;4911298;29;19955;-50
2021/12/28 17:28:33;;;;;;;;;;;;;;;6.34;85.68;96447.53;4918454;29;20413;-50
2021/12/28 17:30:58;;;;;;;;;;;;;;;6.31;85.35;96453.81;4918284;29;20275;-53
2021/12/28 17:33:24;;;;;;;;;;;;;;;6.35;83.49;96452.63;4918318;29;19915;-50
2021/12/28 17:35:49;;;;;;;;;;;;;;;6.28;84.70;96474.06;4915952;29;19974;-50
2021/12/28 17:38:14;;;;;;;;;;;;;;;6.42;83.71;96482.44;4919243;29;19915;-51
2021/12/28 17:40:40;;;;;;;;;;;;;;;6.40;84.52;96484.34;4918475;29;19941;-50
2021/12/28 17:43:05;;;;;;;;;;;;;;;6.45;82.73;96480.53;4918558;29;19984;-53
2021/12/28 17:45:30;;;;;;;;;;;;;;;6.42;84.35;96479.81;4918450;29;19938;-50
2021/12/28 17:47:57;;;;;;;;;;;;;;;6.31;84.82;96485.06;4909585;29;19923;-50
2021/12/28 17:50:22;;;;;;;;;;;;;;;6.33;84.83;96441.50;4918601;29;19922;-50
2021/12/28 17:52:48;;;;;;;;;;;;;;;6.18;85.41;96427.09;4918449;29;19915;-51
2021/12/28 17:55:13;;;;;;;;;;;;;;;6.17;85.32;96408.03;4918357;29;20306;-49
2021/12/28 17:57:39;;;;;;;;;;;;;;;6.14;85.02;96426.50;4915893;29;19915;-53
2021/12/28 18:00:05;;;;;;;;;;;;;;;6.16;84.49;96445.44;4917621;29;19967;-51
2021/12/28 18:02:30;;;;;;;;;;;;;;;6.15;85.27;96469.78;4906039;29;19914;-53
2021/12/28 18:04:55;;;;;;;;;;;;;;;6.14;85.35;96482.94;4919345;29;19919;-54
2021/12/28 18:07:20;;;;;;;;;;;;;;;6.09;85.37;96483.31;4918347;29;20002;-55
2021/12/28 18:09:46;;;;;;;;;;;;;;;6.10;85.90;96490.16;4919281;29;20009;-53
2021/12/28 18:12:11;;;;;;;;;;;;;;;6.10;85.41;96486.75;4918070;29;19915;-51
2021/12/28 18:14:36;;;;;;;;;;;;;;;6.06;84.95;96477.53;4916302;29;19915;-51
2021/12/28 18:17:02;;;;;;;;;;;;;;;6.14;84.75;96475.97;4918301;29;20363;-51
2021/12/28 18:19:27;;;;;;;;;;;;;;;6.02;85.51;96478.69;4916685;29;20027;-52
2021/12/28 18:21:54;;;;;;;;;;;;;;;6.05;84.71;96488.84;4918307;29;20421;-50
2021/12/28 18:24:22;;;;;;;;;;;;;;;6.04;84.50;96489.81;4917655;29;19915;-54
2021/12/28 18:26:47;;;;;;;;;;;;;;;6.04;84.36;96492.41;4917149;29;20331;-49
2021/12/28 18:29:25;;;;;;;;;;;;;;;5.99;85.23;96492.78;4916092;29;19919;-53
2021/12/28 18:31:50;;;;;;;;;;;;;;;5.97;83.88;96486.03;4914383;29;19918;-50
2021/12/28 18:34:15;;;;;;;;;;;;;;;5.99;84.37;96484.97;4916952;29;19915;-53
2021/12/28 18:36:41;;;;;;;;;;;;;;;6.00;84.13;96489.22;4917903;29;19922;-50
2021/12/28 18:39:06;;;;;;;;;;;;;;;6.05;83.41;96505.28;4916322;29;19928;-55
2021/12/28 18:41:33;;;;;;;;;;;;;;;6.05;84.31;96512.28;4916656;29;20403;-53
2021/12/28 18:44:00;;;;;;;;;;;;;;;6.12;83.54;96490.84;4917318;29;20389;-53
2021/12/28 18:46:25;;;;;;;;;;;;;;;6.19;82.98;96499.03;4917439;29;19919;-53
2021/12/28 18:48:51;;;;;;;;;;;;;;;6.14;83.54;96499.38;4917584;29;19922;-51
2021/12/28 18:51:16;;;;;;;;;;;;;;;6.10;83.56;96497.16;4916541;29;20017;-53
2021/12/28 18:53:41;;;;;;;;;;;;;;;6.09;83.45;96490.28;4917097;29;19938;-52
2021/12/28 18:56:06;;;;;;;;;;;;;;;6.02;84.51;96494.28;4917574;29;19933;-53
2021/12/28 18:58:32;;;;;;;;;;;;;;;5.98;84.51;96500.69;4917068;29;19969;-49
2021/12/28 19:00:58;;;;;;;;;;;;;;;5.82;85.84;96488.84;4915510;29;20435;-56
2021/12/28 19:03:23;;;;;;;;;;;;;;;5.88;84.92;96485.78;4916808;29;19915;-50
2021/12/28 19:05:48;;;;;;;;;;;;;;;5.98;85.13;96487.69;4917077;29;19970;-50
2021/12/28 19:08:14;;;;;;;;;;;;;;;6.00;84.46;96491.81;4917116;29;19966;-50
2021/12/28 19:10:40;;;;;;;;;;;;;;;6.00;85.20;96491.00;4916939;29;20400;-53
2021/12/28 19:13:05;;;;;;;;;;;;;;;5.99;84.74;96490.19;4908275;29;19985;-54
2021/12/28 19:15:30;;;;;;;;;;;;;;;5.93;84.38;96495.84;4916424;29;20302;-50
2021/12/28 19:17:55;;;;;;;;;;;;;;;5.98;85.00;96498.09;4916749;29;20290;-50
2021/12/28 19:20:21;;;;;;;;;;;;;;;5.93;84.62;96491.47;4916674;29;19919;-51
2021/12/28 19:22:46;;;;;;;;;;;;;;;5.87;85.34;96493.69;4916224;29;20414;-52
2021/12/28 19:25:11;;;;;;;;;;;;;;;5.82;84.62;96501.84;4916483;29;19922;-52
2021/12/28 19:27:36;;;;;;;;;;;;;;;5.83;84.61;96511.31;4916362;29;19921;-52
2021/12/28 19:30:05;;;;;;;;;;;;;;;5.83;83.89;96513.91;4903825;29;20006;-49
2021/12/28 19:32:30;;;;;;;;;;;;;;;5.79;84.48;96507.28;4912612;29;20264;-49
2021/12/28 19:34:55;;;;;;;;;;;;;;;5.72;84.09;96514.72;4916453;29;20409;-50
2021/12/28 19:37:20;;;;;;;;;;;;;;;5.73;84.35;96515.53;4916884;29;20367;-50
2021/12/28 19:39:46;;;;;;;;;;;;;;;5.76;84.22;96519.69;4916893;29;20450;-52
2021/12/28 19:42:12;;;;;;;;;;;;;;;5.67;84.79;96516.00;4915222;29;20026;-49
2021/12/28 19:44:37;;;;;;;;;;;;;;;5.87;83.76;96517.09;4914009;29;20013;-53
2021/12/28 19:47:03;;;;;;;;;;;;;;;5.90;83.90;96522.06;4916324;29;19953;-52
2021/12/28 19:49:28;;;;;;;;;;;;;;;5.89;83.46;96515.22;4916249;29;19915;-52
2021/12/28 19:51:53;;;;;;;;;;;;;;;5.80;83.54;96514.13;4916272;29;19914;-52
2021/12/28 19:54:19;;;;;;;;;;;;;;;5.85;83.40;96518.97;4909915;29;20356;-51
2021/12/28 19:56:46;;;;;;;;;;;;;;;5.83;83.83;96511.31;4907772;29;19915;-51
2021/12/28 19:59:11;;;;;;;;;;;;;;;5.96;83.03;96505.19;4916111;29;19919;-50
2021/12/28 20:01:36;;;;;;;;;;;;;;;5.88;83.03;96504.00;4916172;29;20001;-54
2021/12/28 20:04:02;;;;;;;;;;;;;;;5.91;82.80;96508.09;4914038;29;19954;-51
2021/12/28 20:06:27;;;;;;;;;;;;;;;6.01;81.78;96501.28;4904335;29;19915;-51
2021/12/28 20:08:52;;;;;;;;;;;;;;;5.88;82.50;96504.00;4916375;29;19918;-49
2021/12/28 20:11:17;;;;;;;;;;;;;;;5.87;82.71;96499.72;4915953;29;19915;-51
2021/12/28 20:13:43;;;;;;;;;;;;;;;5.84;82.63;96502.53;4915710;29;19914;-51
2021/12/28 20:16:08;;;;;;;;;;;;;;;5.95;81.73;96512.16;4914403;29;19915;-50
2021/12/28 20:18:33;;;;;;;;;;;;;;;6.02;81.68;96509.91;4916174;29;19979;-54
2021/12/28 20:21:00;;;;;;;;;;;;;;;6.09;81.56;96521.50;4915511;29;19958;-53
2021/12/28 20:23:26;;;;;;;;;;;;;;;6.06;81.54;96514.78;4915755;29;19919;-52
2021/12/28 20:25:52;;;;;;;;;;;;;;;6.06;81.36;96520.00;4914691;29;19922;-51
2021/12/28 20:28:17;;;;;;;;;;;;;;;6.11;81.68;96520.44;4916034;29;19911;-52
2021/12/28 20:30:46;;;;;;;;;;;;;;;6.10;82.29;96524.00;4915378;29;20390;-52
2021/12/28 20:33:12;;;;;;;;;;;;;;;6.13;83.11;96530.75;4915551;29;19915;-51
2021/12/28 20:35:37;;;;;;;;;;;;;;;6.21;83.25;96530.16;4914702;29;19915;-49
2021/12/28 20:38:03;;;;;;;;;;;;;;;6.13;83.73;96526.38;4905393;29;20010;-53
2021/12/28 20:40:28;;;;;;;;;;;;;;;6.15;83.93;96521.03;4914789;29;20290;-51
2021/12/28 20:42:53;;;;;;;;;;;;;;;6.03;84.73;96509.81;4915146;29;19971;-51
2021/12/28 20:45:19;;;;;;;;;;;;;;;6.03;85.10;96499.41;4915518;29;19946;-53
2021/12/28 20:47:45;;;;;;;;;;;;;;;6.13;84.49;96497.75;4915453;29;19915;-50
2021/12/28 20:50:11;;;;;;;;;;;;;;;6.05;85.07;96499.28;4912247;29;19915;-53
2021/12/28 20:52:36;;;;;;;;;;;;;;;6.13;85.18;96496.91;4913254;29;19926;-51
2021/12/28 20:55:01;;;;;;;;;;;;;;;6.06;84.90;96500.94;4914998;29;19915;-51
2021/12/28 20:57:27;;;;;;;;;;;;;;;6.09;84.57;96493.72;4917657;29;20339;-53
2021/12/28 20:59:52;;;;;;;;;;;;;;;6.04;85.35;96495.84;4919046;29;20014;-54
2021/12/28 21:02:17;;;;;;;;;;;;;;;6.14;84.52;96499.38;4919733;29;19962;-53
2021/12/28 21:04:43;;;;;;;;;;;;;;;6.06;84.64;96487.94;4919239;29;20145;-53
2021/12/28 21:07:08;;;;;;;;;;;;;;;5.94;84.25;96487.91;4919131;29;20014;-54
2021/12/28 21:09:33;;;;;;;;;;;;;;;6.01;85.02;96488.28;4918083;29;19966;-50
2021/12/28 21:11:59;;;;;;;;;;;;;;;5.88;85.02;96477.13;4917988;29;19915;-51
2021/12/28 21:14:24;;;;;;;;;;;;;;;5.87;85.43;96470.25;4918936;29;19919;-52
2021/12/28 21:16:54;;;;;;;;;;;;;;;5.93;84.62;96469.81;4916299;29;20419;-53
2021/12/28 21:19:20;;;;;;;;;;;;;;;5.91;84.65;96476.88;4914182;29;19923;-52
2021/12/28 21:21:45;;;;;;;;;;;;;;;5.94;83.86;96477.50;4918867;29;19941;-54
2021/12/28 21:24:17;;;;;;;;;;;;;;;5.91;83.58;96477.69;4918505;29;20375;-53
2021/12/28 21:26:43;;;;;;;;;;;;;;;5.87;84.84;96478.06;4918999;29;19915;-54
2021/12/28 21:29:08;;;;;;;;;;;;;;;5.88;84.08;96485.78;4918643;29;20021;-50
2021/12/28 21:31:33;;;;;;;;;;;;;;;5.96;83.45;96476.56;4919092;29;19954;-50
2021/12/28 21:33:58;;;;;;;;;;;;;;;6.00;83.63;96471.00;4918412;29;19915;-52
2021/12/28 21:36:24;;;;;;;;;;;;;;;5.97;83.37;96471.25;4914703;29;19950;-52
2021/12/28 21:38:49;;;;;;;;;;;;;;;6.07;83.24;96481.78;4916173;29;19979;-52
2021/12/28 21:41:14;;;;;;;;;;;;;;;6.02;84.16;96476.06;4914884;29;20620;-55
2021/12/28 21:43:39;;;;;;;;;;;;;;;5.94;84.77;96484.47;4918229;29;19970;-54
2021/12/28 21:46:05;;;;;;;;;;;;;;;5.93;85.17;96475.03;4918880;29;20215;-55
2021/12/28 21:48:30;;;;;;;;;;;;;;;5.97;84.65;96475.63;4919337;29;19914;-52
2021/12/28 21:50:56;;;;;;;;;;;;;;;5.84;86.96;96480.91;4918940;29;19918;-51
2021/12/28 21:53:21;;;;;;;;;;;;;;;5.87;87.42;96481.50;4919374;29;20331;-51
2021/12/28 21:55:46;;;;;;;;;;;;;;;5.88;86.42;96477.13;4919352;29;19918;-51
2021/12/28 21:58:11;;;;;;;;;;;;;;;5.96;86.76;96468.78;4918549;29;19923;-54
2021/12/28 22:00:37;;;;;;;;;;;;;;;5.87;87.38;96460.69;4904484;29;19926;-54
2021/12/28 22:03:02;;;;;;;;;;;;;;;5.83;86.94;96458.44;4910609;29;19922;-54
2021/12/28 22:05:27;;;;;;;;;;;;;;;5.87;87.43;96460.69;4905675;29;20291;-52
2021/12/28 22:07:53;;;;;;;;;;;;;;;5.88;87.80;96459.75;4916156;29;19915;-52
2021/12/28 22:10:19;;;;;;;;;;;;;;;5.79;87.62;96452.66;4908298;29;20383;-54
2021/12/28 22:12:44;;;;;;;;;;;;;;;5.72;88.72;96456.66;4918443;29;19915;-51
2021/12/28 22:15:10;;;;;;;;;;;;;;;5.80;87.72;96449.09;4918674;29;20291;-51
2021/12/28 22:17:35;;;;;;;;;;;;;;;5.85;88.12;96452.19;4918800;29;20387;-53
2021/12/28 22:20:02;;;;;;;;;;;;;;;5.69;88.45;96446.50;4918410;29;20034;-50
2021/12/28 22:22:27;;;;;;;;;;;;;;;5.72;88.77;96451.47;4918495;29;19949;-52
2021/12/28 22:24:52;;;;;;;;;;;;;;;5.80;88.33;96459.50;4911396;29;19958;-51
2021/12/28 22:27:18;;;;;;;;;;;;;;;5.81;88.27;96458.53;4917066;29;19926;-51
2021/12/28 22:29:43;;;;;;;;;;;;;;;5.81;88.20;96445.53;4918970;29;19986;-53
2021/12/28 22:32:13;;;;;;;;;;;;;;;5.83;88.49;96448.84;4918250;29;20239;-53
2021/12/28 22:34:40;;;;;;;;;;;;;;;5.81;88.93;96449.91;4918235;29;20391;-51
2021/12/28 22:37:05;;;;;;;;;;;;;;;5.89;87.80;96448.38;4918465;29;19915;-50
2021/12/28 22:39:31;;;;;;;;;;;;;;;5.84;88.33;96450.50;4910498;29;20356;-49
2021/12/28 22:41:57;;;;;;;;;;;;;;;5.90;88.64;96444.84;4918298;29;19922;-52
2021/12/28 22:44:22;;;;;;;;;;;;;;;5.86;88.17;96464.25;4916860;29;19919;-50
2021/12/28 22:46:47;;;;;;;;;;;;;;;5.88;88.27;96451.09;4918044;29;19921;-51
2021/12/28 22:49:12;;;;;;;;;;;;;;;6.00;88.12;96452.78;4917943;29;19910;-52
2021/12/28 22:51:38;;;;;;;;;;;;;;;5.97;88.30;96454.81;4918458;29;19911;-49
2021/12/28 22:54:03;;;;;;;;;;;;;;;5.97;88.19;96462.59;4917597;29;20315;-49
2021/12/28 22:56:29;;;;;;;;;;;;;;;5.92;88.16;96461.19;4917930;29;19923;-48
2021/12/28 22:58:55;;;;;;;;;;;;;;;5.97;88.48;96465.22;4914470;29;20368;-51
2021/12/28 23:01:20;;;;;;;;;;;;;;;5.96;88.52;96460.97;4904706;29;19915;-52
2021/12/28 23:03:45;;;;;;;;;;;;;;;6.04;87.92;96469.81;4910894;29;19966;-51
2021/12/28 23:06:11;;;;;;;;;;;;;;;6.08;87.79;96465.19;4915929;29;19914;-53
2021/12/28 23:08:37;;;;;;;;;;;;;;;6.07;88.41;96466.97;4917393;29;19915;-50
2021/12/28 23:11:03;;;;;;;;;;;;;;;6.13;88.64;96465.69;4917763;29;20367;-50
2021/12/28 23:13:28;;;;;;;;;;;;;;;6.19;88.00;96465.19;4916910;29;19922;-49
2021/12/28 23:15:54;;;;;;;;;;;;;;;6.14;87.99;96462.94;4909413;29;20364;-53
2021/12/28 23:18:19;;;;;;;;;;;;;;;6.13;88.49;96468.28;4917398;29;19971;-53
2021/12/28 23:20:44;;;;;;;;;;;;;;;6.25;88.21;96471.69;4917676;29;19970;-52
2021/12/28 23:23:11;;;;;;;;;;;;;;;6.32;88.20;96473.69;4917137;29;19914;-52
2021/12/28 23:25:36;;;;;;;;;;;;;;;6.32;87.13;96473.69;4907927;29;19926;-50
2021/12/28 23:28:02;;;;;;;;;;;;;;;6.30;87.56;96478.19;4917211;29;19915;-53
2021/12/28 23:30:29;;;;;;;;;;;;;;;6.32;88.07;96483.28;4917152;29;19915;-52
2021/12/28 23:32:59;;;;;;;;;;;;;;;6.32;87.78;96478.88;4917467;29;19915;-53
2021/12/28 23:35:25;;;;;;;;;;;;;;;6.33;87.31;96480.56;4915757;29;19970;-52
2021/12/28 23:37:50;;;;;;;;;;;;;;;6.45;87.48;96498.78;4916586;29;19915;-52
2021/12/28 23:40:16;;;;;;;;;;;;;;;6.46;87.37;96497.81;4917305;29;19922;-52
2021/12/28 23:42:42;;;;;;;;;;;;;;;6.50;86.90;96499.22;4916915;29;19915;-50
2021/12/28 23:45:08;;;;;;;;;;;;;;;6.46;88.00;96508.22;4916026;29;19915;-48
2021/12/28 23:47:33;;;;;;;;;;;;;;;6.48;87.41;96506.34;4905777;29;19918;-49
2021/12/28 23:49:58;;;;;;;;;;;;;;;6.47;87.69;96520.28;4916487;29;20017;-51
2021/12/28 23:52:23;;;;;;;;;;;;;;;6.51;88.45;96517.34;4917063;29;20259;-52
2021/12/28 23:54:49;;;;;;;;;;;;;;;6.57;87.73;96526.44;4916111;29;20386;-52
2021/12/28 23:57:14;;;;;;;;;;;;;;;6.60;88.14;96526.19;4909985;29;20273;-50
2021/12/28 23:59:39;;;;;;;;;;;;;;;6.61;87.48;96533.91;4916666;29;19915;-51
